This is the latest recevied weather packets stored in our database for station/object HB9FRQ-10. If no packets are shown the sender has not sent any weather packets the latest 1 day(s).
| Time | Temp. | Humidity | Pressure | Rain* | Wind** | Luminosity | Snow |
|---|---|---|---|---|---|---|---|
| 1777784617 | 11.67° C | 99% | 1018 hPa | - | - | - | - |
| 1777783717 | 11.11° C | 100% | 1018.1 hPa | - | - | - | - |
| 1777782817 | 10.56° C | 100% | 1017.9 hPa | - | - | - | - |
| 1777781917 | 10.56° C | 100% | 1018 hPa | - | - | - | - |
| 1777781016 | 11.11° C | 100% | 1017.9 hPa | - | - | - | - |
| 1777780124 | 10.56° C | 100% | 1018 hPa | - | - | - | - |
| 1777779224 | 10.56° C | 100% | 1017.7 hPa | - | - | - | - |
| 1777778324 | 11.11° C | 100% | 1017.9 hPa | - | - | - | - |
| 1777777424 | 11.67° C | 92% | 1017.8 hPa | - | - | - | - |
| 1777776524 | 11.67° C | 92% | 1017.5 hPa | - | - | - | - |
| 1777775624 | 11.67° C | 93% | 1017.7 hPa | - | - | - | - |
| 1777774724 | 11.67° C | 96% | 1017.9 hPa | - | - | - | - |
| 1777773823 | 11.67° C | 97% | 1018.1 hPa | - | - | - | - |
| 1777772923 | 11.67° C | 98% | 1018.3 hPa | - | - | - | - |
| 1777772023 | 11.67° C | 99% | 1018.4 hPa | - | - | - | - |
| 1777771123 | 11.67° C | 99% | 1018.5 hPa | - | - | - | - |
| 1777770223 | 12.22° C | 98% | 1018.5 hPa | - | - | - | - |
| 1777769323 | 11.67° C | 100% | 1018.6 hPa | - | - | - | - |
| 1777768423 | 12.22° C | 98% | 1018.7 hPa | - | - | - | - |
| 1777767523 | 12.78° C | 96% | 1018.8 hPa | - | - | - | - |
| 1777766623 | 12.78° C | 99% | 1018.7 hPa | - | - | - | - |
| 1777765723 | 13.33° C | 93% | 1018.8 hPa | - | - | - | - |
| 1777764823 | 12.78° C | 94% | 1018.8 hPa | - | - | - | - |
| 1777763923 | 13.33° C | 94% | 1018.9 hPa | - | - | - | - |
| 1777763023 | 13.33° C | 93% | 1018.9 hPa | - | - | - | - |
* Rain since midnight (hover to see other rain measurements)
** Current wind speed in m/s (hover to see current wind gust speed)